sensor_id;sensor_type;location;lat;lon;timestamp;pressure;altitude;pressure_sealevel;temperature
49557;BMP280;35462;45.048;7.666;2022-08-01T00:06:50;98833.22;;;29.67
49557;BMP280;35462;45.048;7.666;2022-08-01T00:22:06;98831.63;;;29.44
49557;BMP280;35462;45.048;7.666;2022-08-01T00:37:22;98836.66;;;29.40
49557;BMP280;35462;45.048;7.666;2022-08-01T00:52:39;98839.06;;;29.23
49557;BMP280;35462;45.048;7.666;2022-08-01T01:08:04;98840.72;;;29.06
49557;BMP280;35462;45.048;7.666;2022-08-01T01:39:08;98837.16;;;28.78
49557;BMP280;35462;45.048;7.666;2022-08-01T01:54:24;98844.97;;;28.74
49557;BMP280;35462;45.048;7.666;2022-08-01T02:25:48;98837.78;;;28.50
49557;BMP280;35462;45.048;7.666;2022-08-01T02:41:08;98847.66;;;28.40
49557;BMP280;35462;45.048;7.666;2022-08-01T02:56:25;98846.31;;;28.21
49557;BMP280;35462;45.048;7.666;2022-08-01T03:11:53;98856.97;;;28.06
49557;BMP280;35462;45.048;7.666;2022-08-01T03:27:23;98855.75;;;27.94
49557;BMP280;35462;45.048;7.666;2022-08-01T03:42:49;98857.16;;;27.70
49557;BMP280;35462;45.048;7.666;2022-08-01T03:58:06;98855.06;;;27.76
49557;BMP280;35462;45.048;7.666;2022-08-01T04:13:24;98862.81;;;27.72
49557;BMP280;35462;45.048;7.666;2022-08-01T04:28:41;98860.09;;;27.72
49557;BMP280;35462;45.048;7.666;2022-08-01T04:43:59;98872.03;;;27.69
49557;BMP280;35462;45.048;7.666;2022-08-01T04:59:15;98879.69;;;27.70
49557;BMP280;35462;45.048;7.666;2022-08-01T05:14:46;98893.91;;;27.63
49557;BMP280;35462;45.048;7.666;2022-08-01T05:30:02;98892.03;;;27.84
49557;BMP280;35462;45.048;7.666;2022-08-01T05:45:18;98899.94;;;28.13
49557;BMP280;35462;45.048;7.666;2022-08-01T06:00:34;98899.28;;;29.86
49557;BMP280;35462;45.048;7.666;2022-08-01T06:15:50;98910.16;;;32.03
49557;BMP280;35462;45.048;7.666;2022-08-01T06:31:06;98915.94;;;33.17
49557;BMP280;35462;45.048;7.666;2022-08-01T06:46:22;98915.31;;;34.60
49557;BMP280;35462;45.048;7.666;2022-08-01T07:01:37;98922.50;;;39.65
49557;BMP280;35462;45.048;7.666;2022-08-01T07:16:54;98918.44;;;42.45
49557;BMP280;35462;45.048;7.666;2022-08-01T07:32:10;98925.84;;;44.50
49557;BMP280;35462;45.048;7.666;2022-08-01T07:47:27;98911.28;;;40.79
49557;BMP280;35462;45.048;7.666;2022-08-01T08:02:43;98892.75;;;38.71
49557;BMP280;35462;45.048;7.666;2022-08-01T08:18:03;98892.41;;;37.99
49557;BMP280;35462;45.048;7.666;2022-08-01T08:33:19;98881.28;;;37.44
49557;BMP280;35462;45.048;7.666;2022-08-01T08:48:36;98878.34;;;37.62
49557;BMP280;35462;45.048;7.666;2022-08-01T09:03:53;98871.78;;;38.34
49557;BMP280;35462;45.048;7.666;2022-08-01T09:19:14;98876.72;;;38.24
49557;BMP280;35462;45.048;7.666;2022-08-01T09:34:30;98869.69;;;37.36
49557;BMP280;35462;45.048;7.666;2022-08-01T09:49:54;98863.69;;;36.77
49557;BMP280;35462;45.048;7.666;2022-08-01T10:05:10;98840.16;;;35.78
49557;BMP280;35462;45.048;7.666;2022-08-01T10:20:32;98837.00;;;35.44
49557;BMP280;35462;45.048;7.666;2022-08-01T10:35:48;98816.09;;;35.41
49557;BMP280;35462;45.048;7.666;2022-08-01T10:51:06;98792.75;;;35.42
49557;BMP280;35462;45.048;7.666;2022-08-01T11:06:25;98775.88;;;35.57
49557;BMP280;35462;45.048;7.666;2022-08-01T11:21:58;98746.34;;;35.87
49557;BMP280;35462;45.048;7.666;2022-08-01T11:37:25;98726.66;;;35.82
49557;BMP280;35462;45.048;7.666;2022-08-01T11:52:42;98707.81;;;35.69
49557;BMP280;35462;45.048;7.666;2022-08-01T12:07:58;98681.19;;;35.82
49557;BMP280;35462;45.048;7.666;2022-08-01T12:23:15;98660.13;;;35.78
49557;BMP280;35462;45.048;7.666;2022-08-01T12:38:31;98650.97;;;35.84
49557;BMP280;35462;45.048;7.666;2022-08-01T12:53:48;98646.50;;;35.80
49557;BMP280;35462;45.048;7.666;2022-08-01T13:09:06;98631.13;;;35.77
49557;BMP280;35462;45.048;7.666;2022-08-01T13:24:25;98616.16;;;35.80
49557;BMP280;35462;45.048;7.666;2022-08-01T13:39:45;98609.81;;;35.77
49557;BMP280;35462;45.048;7.666;2022-08-01T13:55:03;98595.56;;;35.81
49557;BMP280;35462;45.048;7.666;2022-08-01T14:10:20;98598.31;;;35.81
49557;BMP280;35462;45.048;7.666;2022-08-01T14:25:37;98573.34;;;35.79
49557;BMP280;35462;45.048;7.666;2022-08-01T14:40:53;98551.34;;;35.69
49557;BMP280;35462;45.048;7.666;2022-08-01T14:56:10;98553.66;;;35.73
49557;BMP280;35462;45.048;7.666;2022-08-01T15:11:26;98551.22;;;35.67
49557;BMP280;35462;45.048;7.666;2022-08-01T15:26:42;98541.69;;;35.59
49557;BMP280;35462;45.048;7.666;2022-08-01T15:42:00;98532.41;;;35.54
49557;BMP280;35462;45.048;7.666;2022-08-01T15:57:17;98514.16;;;35.49
49557;BMP280;35462;45.048;7.666;2022-08-01T16:12:34;98508.66;;;35.49
49557;BMP280;35462;45.048;7.666;2022-08-01T16:27:50;98501.41;;;35.44
49557;BMP280;35462;45.048;7.666;2022-08-01T16:43:07;98497.53;;;35.38
49557;BMP280;35462;45.048;7.666;2022-08-01T16:58:22;98502.06;;;35.24
49557;BMP280;35462;45.048;7.666;2022-08-01T17:13:39;98505.06;;;35.07
49557;BMP280;35462;45.048;7.666;2022-08-01T17:28:55;98525.81;;;34.89
49557;BMP280;35462;45.048;7.666;2022-08-01T17:44:11;98520.22;;;34.59
49557;BMP280;35462;45.048;7.666;2022-08-01T17:59:29;98519.19;;;33.98
49557;BMP280;35462;45.048;7.666;2022-08-01T18:14:47;98536.47;;;33.73
49557;BMP280;35462;45.048;7.666;2022-08-01T18:30:04;98552.19;;;33.53
49557;BMP280;35462;45.048;7.666;2022-08-01T18:45:20;98559.53;;;33.51
49557;BMP280;35462;45.048;7.666;2022-08-01T19:00:36;98568.56;;;33.35
49557;BMP280;35462;45.048;7.666;2022-08-01T19:15:54;98593.13;;;33.33
49557;BMP280;35462;45.048;7.666;2022-08-01T19:31:11;98606.91;;;33.16
49557;BMP280;35462;45.048;7.666;2022-08-01T19:46:28;98610.31;;;33.07
49557;BMP280;35462;45.048;7.666;2022-08-01T20:01:45;98639.00;;;32.97
49557;BMP280;35462;45.048;7.666;2022-08-01T20:17:02;98644.00;;;32.74
49557;BMP280;35462;45.048;7.666;2022-08-01T20:32:19;98645.03;;;32.78
49557;BMP280;35462;45.048;7.666;2022-08-01T20:47:38;98658.19;;;32.63
49557;BMP280;35462;45.048;7.666;2022-08-01T21:02:58;98679.16;;;32.51
49557;BMP280;35462;45.048;7.666;2022-08-01T21:18:21;98683.63;;;32.39
49557;BMP280;35462;45.048;7.666;2022-08-01T21:33:40;98686.63;;;32.26
49557;BMP280;35462;45.048;7.666;2022-08-01T21:48:57;98671.94;;;31.83
49557;BMP280;35462;45.048;7.666;2022-08-01T22:04:13;98668.44;;;31.90
49557;BMP280;35462;45.048;7.666;2022-08-01T22:19:32;98660.63;;;31.79
49557;BMP280;35462;45.048;7.666;2022-08-01T22:34:48;98670.38;;;31.65
49557;BMP280;35462;45.048;7.666;2022-08-01T22:50:05;98667.91;;;31.45
49557;BMP280;35462;45.048;7.666;2022-08-01T23:05:24;98658.06;;;31.42
49557;BMP280;35462;45.048;7.666;2022-08-01T23:20:41;98639.47;;;31.33
49557;BMP280;35462;45.048;7.666;2022-08-01T23:35:58;98641.38;;;31.15
49557;BMP280;35462;45.048;7.666;2022-08-01T23:51:14;98635.22;;;31.00
